createdAt,value
2018-11-03T00:00:37.217Z,6.15
2018-11-03T00:01:37.217Z,6.22
2018-11-03T00:02:37.232Z,6.25
2018-11-03T00:03:37.247Z,6.25
2018-11-03T00:04:37.260Z,6.21
2018-11-03T00:05:37.354Z,6.21
2018-11-03T00:06:37.264Z,6.19
2018-11-03T00:07:37.274Z,6.21
2018-11-03T00:08:37.284Z,6.21
2018-11-03T00:09:37.298Z,6.17
2018-11-03T00:10:37.306Z,6.17
2018-11-03T00:12:37.321Z,6.18
2018-11-03T00:13:37.813Z,6.12
2018-11-03T00:14:37.955Z,6.11
2018-11-03T00:15:37.773Z,6.08
2018-11-03T00:16:37.361Z,6.08
2018-11-03T00:17:37.373Z,6.06
2018-11-03T00:18:37.429Z,6.11
2018-11-03T00:19:37.462Z,6.08
2018-11-03T00:20:37.405Z,6.11
2018-11-03T00:21:37.406Z,6.06
2018-11-03T00:22:37.416Z,6.00
2018-11-03T00:23:37.430Z,6.00
2018-11-03T00:24:37.435Z,6.03
2018-11-03T00:25:37.452Z,6.11
2018-11-03T00:26:37.453Z,5.91
2018-11-03T00:27:37.469Z,5.91
2018-11-03T00:28:37.484Z,6.00
2018-11-03T00:29:37.534Z,5.93
2018-11-03T00:30:37.494Z,5.86
2018-11-03T00:31:37.501Z,5.90
2018-11-03T00:32:37.520Z,5.90
2018-11-03T00:33:37.523Z,5.89
2018-11-03T00:34:37.529Z,5.86
2018-11-03T00:35:37.542Z,5.90
2018-11-03T00:36:37.549Z,5.89
2018-11-03T00:37:37.629Z,5.81
2018-11-03T00:38:37.567Z,5.79
2018-11-03T00:39:37.580Z,5.68
2018-11-03T00:40:37.661Z,5.68
2018-11-03T00:42:37.705Z,5.65
2018-11-03T00:43:40.139Z,5.67
2018-11-03T00:44:37.665Z,5.68
2018-11-03T00:46:38.300Z,5.68
2018-11-03T00:47:37.650Z,5.56
2018-11-03T00:48:37.693Z,5.60
2018-11-03T00:49:37.708Z,5.61
2018-11-03T00:50:37.681Z,5.58
2018-11-03T00:51:37.694Z,5.60
2018-11-03T00:52:37.704Z,5.57
2018-11-03T00:53:37.709Z,5.63
2018-11-03T00:54:37.717Z,5.54
2018-11-03T00:55:37.729Z,5.51
2018-11-03T00:56:37.741Z,5.48
2018-11-03T00:57:37.749Z,5.51
2018-11-03T00:58:37.757Z,5.54
2018-11-03T00:59:37.765Z,5.54
2018-11-03T01:00:37.844Z,5.39
2018-11-03T01:01:37.788Z,5.43
2018-11-03T01:02:37.800Z,5.33
2018-11-03T01:03:37.804Z,5.30
2018-11-03T01:04:37.813Z,5.35
2018-11-03T01:05:37.823Z,5.30
2018-11-03T01:06:37.833Z,5.33
2018-11-03T01:07:37.844Z,5.30
2018-11-03T01:08:37.860Z,5.30
2018-11-03T01:09:37.879Z,5.31
2018-11-03T01:10:37.870Z,5.27
2018-11-03T01:11:37.876Z,5.31
2018-11-03T01:12:37.896Z,5.24
2018-11-03T01:13:38.435Z,5.25
2018-11-03T01:16:38.190Z,5.28
2018-11-03T01:18:38.406Z,5.21
2018-11-03T01:19:37.950Z,5.25
2018-11-03T01:20:37.996Z,5.22
2018-11-03T01:21:37.980Z,5.28
2018-11-03T01:22:38.003Z,5.28
2018-11-03T01:23:38.037Z,5.28
2018-11-03T01:24:38.000Z,5.18
2018-11-03T01:25:38.007Z,5.10
2018-11-03T01:26:38.015Z,5.17
2018-11-03T01:27:38.036Z,5.10
2018-11-03T01:28:38.035Z,5.02
2018-11-03T01:29:38.068Z,5.03
2018-11-03T01:30:38.055Z,5.00
2018-11-03T01:31:38.062Z,4.99
2018-11-03T01:32:38.213Z,4.97
2018-11-03T01:33:38.109Z,5.00
2018-11-03T01:34:38.090Z,4.97
2018-11-03T01:35:38.102Z,4.94
2018-11-03T01:36:38.107Z,4.96
2018-11-03T01:37:38.118Z,5.03
2018-11-03T01:38:38.127Z,5.03
2018-11-03T01:39:38.134Z,4.99
2018-11-03T01:40:38.165Z,4.97
2018-11-03T01:41:38.265Z,5.03
2018-11-03T01:42:38.293Z,4.86
2018-11-03T01:43:38.171Z,4.92
2018-11-03T01:44:38.182Z,5.00
2018-11-03T01:45:38.215Z,4.96
2018-11-03T01:47:38.226Z,5.00
2018-11-03T01:49:38.231Z,4.96
2018-11-03T01:50:38.237Z,4.96
2018-11-03T01:51:38.250Z,5.02
2018-11-03T01:52:38.266Z,4.92
2018-11-03T01:53:38.276Z,5.00
2018-11-03T01:54:38.292Z,5.02
2018-11-03T01:55:38.285Z,4.99
2018-11-03T01:56:38.296Z,4.96
2018-11-03T01:57:38.317Z,4.97
2018-11-03T01:58:38.313Z,4.94
2018-11-03T01:59:38.327Z,4.99
2018-11-03T02:00:38.330Z,4.88
2018-11-03T02:01:38.337Z,4.96
2018-11-03T02:02:38.355Z,4.99
2018-11-03T02:03:38.359Z,4.92
2018-11-03T02:04:38.366Z,4.99
2018-11-03T02:05:38.384Z,4.92
2018-11-03T02:06:38.384Z,4.99
2018-11-03T02:07:38.395Z,4.91
2018-11-03T02:08:38.405Z,4.94
2018-11-03T02:09:38.418Z,4.92
2018-11-03T02:10:38.423Z,4.97
2018-11-03T02:11:38.553Z,4.88
2018-11-03T02:12:38.451Z,4.80
2018-11-03T02:13:38.447Z,4.89
2018-11-03T02:14:38.459Z,4.94
2018-11-03T02:15:38.465Z,4.91
2018-11-03T02:16:38.588Z,4.86
2018-11-03T02:17:38.709Z,4.91
2018-11-03T02:18:38.734Z,4.91
2018-11-03T02:20:38.756Z,4.92
2018-11-03T02:22:38.529Z,4.92
2018-11-03T02:23:38.604Z,4.97
2018-11-03T02:24:38.547Z,4.91
2018-11-03T02:25:38.577Z,4.99
2018-11-03T02:26:38.565Z,5.02
2018-11-03T02:27:38.574Z,4.94
2018-11-03T02:28:38.581Z,4.92
2018-11-03T02:29:38.606Z,4.91
2018-11-03T02:30:38.603Z,5.02
2018-11-03T02:31:38.608Z,4.94
2018-11-03T02:32:38.626Z,4.94
2018-11-03T02:33:38.662Z,5.00
2018-11-03T02:34:38.634Z,5.04
2018-11-03T02:35:38.734Z,4.96
2018-11-03T02:36:38.662Z,4.94
2018-11-03T02:37:38.668Z,4.99
2018-11-03T02:38:38.672Z,4.96
2018-11-03T02:39:38.684Z,5.00
2018-11-03T02:40:38.694Z,5.00
2018-11-03T02:41:38.721Z,5.02
2018-11-03T02:42:38.721Z,5.00
2018-11-03T02:43:38.738Z,4.96
2018-11-03T02:44:38.737Z,4.97
2018-11-03T02:45:38.803Z,4.96
2018-11-03T02:46:38.791Z,4.99
2018-11-03T02:48:38.863Z,4.94
2018-11-03T02:49:39.129Z,5.02
2018-11-03T02:50:39.155Z,5.04
2018-11-03T02:51:40.145Z,5.02
2018-11-03T02:52:38.911Z,4.92
2018-11-03T02:53:38.807Z,5.00
2018-11-03T02:54:38.814Z,5.00
2018-11-03T02:55:38.831Z,4.92
2018-11-03T02:56:38.844Z,4.97
2018-11-03T02:57:38.847Z,4.97
2018-11-03T02:58:38.853Z,5.02
2018-11-03T02:59:38.887Z,4.99
2018-11-03T03:00:38.873Z,4.97
2018-11-03T03:01:38.882Z,4.94
2018-11-03T03:02:38.889Z,4.94
2018-11-03T03:03:38.906Z,4.77
2018-11-03T03:04:38.917Z,4.77
2018-11-03T03:05:38.924Z,4.86
2018-11-03T03:06:38.934Z,4.88
2018-11-03T03:07:38.934Z,4.77
2018-11-03T03:08:38.961Z,4.70
2018-11-03T03:09:38.971Z,4.69
2018-11-03T03:10:38.961Z,4.73
2018-11-03T03:11:38.977Z,4.66
2018-11-03T03:12:38.978Z,4.70
2018-11-03T03:13:38.986Z,4.66
2018-11-03T03:14:39.002Z,4.55
2018-11-03T03:15:39.015Z,4.67
2018-11-03T03:16:39.117Z,4.58
2018-11-03T03:17:39.156Z,4.67
2018-11-03T03:18:39.037Z,4.70
2018-11-03T03:22:39.951Z,4.54
2018-11-03T03:23:39.086Z,4.58
2018-11-03T03:24:39.083Z,4.50
2018-11-03T03:25:39.094Z,4.65
2018-11-03T03:26:39.105Z,4.60
2018-11-03T03:27:39.111Z,4.58
2018-11-03T03:28:39.210Z,4.51
2018-11-03T03:29:39.244Z,4.62
2018-11-03T03:30:39.164Z,4.60
2018-11-03T03:31:39.147Z,4.54
2018-11-03T03:32:39.161Z,4.54
2018-11-03T03:33:39.162Z,4.62
2018-11-03T03:34:39.185Z,4.59
2018-11-03T03:35:39.751Z,4.63
2018-11-03T03:36:39.197Z,4.55
2018-11-03T03:37:39.200Z,4.55
2018-11-03T03:38:39.247Z,4.55
2018-11-03T03:39:39.222Z,4.54
2018-11-03T03:40:39.251Z,4.54
2018-11-03T03:41:39.235Z,4.54
2018-11-03T03:42:39.244Z,4.59
2018-11-03T03:43:39.252Z,4.54
2018-11-03T03:45:39.271Z,4.62
2018-11-03T03:46:39.282Z,4.58
2018-11-03T03:47:39.309Z,4.51
2018-11-03T03:48:39.297Z,4.51
2018-11-03T03:49:39.314Z,4.58
2018-11-03T03:50:39.320Z,4.52
2018-11-03T03:51:39.679Z,4.51
2018-11-03T03:52:40.123Z,4.48
2018-11-03T03:53:39.489Z,4.47
2018-11-03T03:54:39.349Z,4.48
2018-11-03T03:55:39.359Z,4.55
2018-11-03T03:56:39.382Z,4.51
2018-11-03T03:57:39.380Z,4.54
2018-11-03T03:58:39.390Z,4.59
2018-11-03T03:59:39.396Z,4.65
2018-11-03T04:00:39.409Z,4.55
2018-11-03T04:01:39.438Z,4.54
2018-11-03T04:02:39.431Z,4.63
2018-11-03T04:03:39.439Z,4.63
2018-11-03T04:04:39.448Z,4.55
2018-11-03T04:05:39.452Z,4.51
2018-11-03T04:06:39.456Z,4.59
2018-11-03T04:07:39.462Z,4.51
2018-11-03T04:08:39.475Z,4.47
2018-11-03T04:09:39.486Z,4.52
2018-11-03T04:10:39.561Z,4.60
2018-11-03T04:11:39.504Z,4.52
2018-11-03T04:12:39.546Z,4.59
2018-11-03T04:13:39.516Z,4.48
2018-11-03T04:14:39.530Z,4.60
2018-11-03T04:15:39.564Z,4.47
2018-11-03T04:16:39.546Z,4.51
2018-11-03T04:17:39.552Z,4.54
2018-11-03T04:18:39.565Z,4.52
2018-11-03T04:19:39.579Z,4.51
2018-11-03T04:20:39.620Z,4.54
2018-11-03T04:21:40.059Z,4.48
2018-11-03T04:22:39.711Z,4.44
2018-11-03T04:23:40.001Z,4.48
2018-11-03T04:24:39.751Z,4.47
2018-11-03T04:25:39.688Z,4.42
2018-11-03T04:26:39.692Z,4.40
2018-11-03T04:27:39.649Z,4.48
2018-11-03T04:28:39.667Z,4.45
2018-11-03T04:29:39.663Z,4.51
2018-11-03T04:30:39.669Z,4.47
2018-11-03T04:31:39.682Z,4.45
2018-11-03T04:32:39.692Z,4.47
2018-11-03T04:33:39.693Z,4.41
2018-11-03T04:34:39.699Z,4.44
2018-11-03T04:35:39.709Z,4.48
2018-11-03T04:36:39.715Z,4.47
2018-11-03T04:37:39.721Z,4.47
2018-11-03T04:38:39.733Z,4.47
2018-11-03T04:39:39.739Z,4.45
2018-11-03T04:40:39.750Z,4.48
2018-11-03T04:41:39.757Z,4.42
2018-11-03T04:42:39.764Z,4.47
2018-11-03T04:43:39.774Z,4.45
2018-11-03T04:44:39.782Z,4.44
2018-11-03T04:45:39.928Z,4.42
2018-11-03T04:46:39.805Z,4.48
2018-11-03T04:47:39.819Z,4.48
2018-11-03T04:48:39.820Z,4.50
2018-11-03T04:49:39.830Z,4.48
2018-11-03T04:50:39.836Z,4.45
2018-11-03T04:51:39.845Z,4.42
2018-11-03T04:53:39.865Z,4.48
2018-11-03T04:56:40.725Z,4.41
2018-11-03T04:57:40.776Z,4.48
2018-11-03T04:58:39.912Z,4.44
2018-11-03T04:59:39.926Z,4.44
2018-11-03T05:00:39.924Z,4.48
2018-11-03T05:01:39.932Z,4.42
2018-11-03T05:02:39.941Z,4.52
2018-11-03T05:03:39.953Z,4.50
2018-11-03T05:04:39.981Z,4.47
2018-11-03T05:05:39.967Z,4.51
2018-11-03T05:06:39.975Z,4.45
2018-11-03T05:07:39.987Z,4.48
2018-11-03T05:08:39.996Z,4.47
2018-11-03T05:09:40.047Z,4.48
2018-11-03T05:10:40.018Z,4.45
2018-11-03T05:11:40.027Z,4.44
2018-11-03T05:12:40.029Z,4.48
2018-11-03T05:13:40.058Z,4.40
2018-11-03T05:14:40.049Z,4.44
2018-11-03T05:15:40.102Z,4.45
2018-11-03T05:16:40.076Z,4.47
2018-11-03T05:17:40.075Z,4.47
2018-11-03T05:18:40.146Z,4.47
2018-11-03T05:19:40.113Z,4.47
2018-11-03T05:20:40.149Z,4.50
2018-11-03T05:21:40.113Z,4.42
2018-11-03T05:22:40.121Z,4.47
2018-11-03T05:23:40.461Z,4.55
2018-11-03T05:24:40.439Z,4.51
2018-11-03T05:26:40.613Z,4.55
2018-11-03T05:28:40.177Z,4.50
2018-11-03T05:29:40.248Z,4.51
2018-11-03T05:30:40.194Z,4.48
2018-11-03T05:31:40.201Z,4.40
2018-11-03T05:32:40.204Z,4.42
2018-11-03T05:33:40.212Z,4.47
2018-11-03T05:34:40.231Z,4.47
2018-11-03T05:35:40.247Z,4.42
2018-11-03T05:36:40.244Z,4.42
2018-11-03T05:37:40.272Z,4.42
2018-11-03T05:38:40.270Z,4.44
2018-11-03T05:39:40.266Z,4.41
2018-11-03T05:40:40.272Z,4.42
2018-11-03T05:41:40.282Z,4.44
2018-11-03T05:42:40.296Z,4.42
2018-11-03T05:43:40.306Z,4.40
2018-11-03T05:44:40.319Z,4.48
2018-11-03T05:45:40.333Z,4.45
2018-11-03T05:46:40.423Z,4.40
2018-11-03T05:47:40.339Z,4.48
2018-11-03T05:48:40.343Z,4.42
2018-11-03T05:49:40.359Z,4.48
2018-11-03T05:50:40.361Z,4.41
2018-11-03T05:51:40.370Z,4.45
2018-11-03T05:52:40.382Z,4.50
2018-11-03T05:53:40.387Z,4.45
2018-11-03T05:54:40.398Z,4.47
2018-11-03T05:55:40.466Z,4.45
2018-11-03T05:56:40.582Z,4.48
2018-11-03T05:57:40.926Z,4.48
2018-11-03T05:58:40.714Z,4.48
2018-11-03T05:59:41.017Z,4.48
2018-11-03T06:00:40.506Z,4.42
2018-11-03T06:01:40.482Z,4.42
2018-11-03T06:02:40.478Z,4.42
2018-11-03T06:03:40.475Z,4.42
2018-11-03T06:04:40.497Z,4.45
2018-11-03T06:05:40.493Z,4.37
2018-11-03T06:06:40.515Z,4.36
2018-11-03T06:07:40.540Z,4.36
2018-11-03T06:08:40.537Z,4.48
2018-11-03T06:09:40.529Z,4.42
2018-11-03T06:10:40.537Z,4.47
2018-11-03T06:11:40.557Z,4.44
2018-11-03T06:12:40.552Z,4.48
2018-11-03T06:13:40.562Z,4.36
2018-11-03T06:14:40.570Z,4.37
2018-11-03T06:15:40.797Z,4.30
2018-11-03T06:16:40.600Z,4.30
2018-11-03T06:17:40.600Z,4.27
2018-11-03T06:18:40.606Z,4.22
2018-11-03T06:19:40.627Z,4.26
2018-11-03T06:20:40.623Z,4.16
2018-11-03T06:21:40.647Z,4.11
2018-11-03T06:22:40.848Z,4.04
2018-11-03T06:23:40.688Z,4.02
2018-11-03T06:24:40.672Z,4.04
2018-11-03T06:25:40.720Z,3.91
2018-11-03T06:26:40.675Z,3.86
2018-11-03T06:27:40.750Z,3.91
2018-11-03T06:28:40.695Z,3.80
2018-11-03T06:29:40.703Z,3.75
2018-11-03T06:31:40.797Z,3.65
2018-11-03T06:32:40.734Z,3.68
2018-11-03T06:33:40.740Z,3.68
2018-11-03T06:34:40.755Z,3.61
2018-11-03T06:35:40.756Z,3.69
2018-11-03T06:36:40.763Z,3.66
2018-11-03T06:37:40.822Z,3.65
2018-11-03T06:38:40.803Z,3.62
2018-11-03T06:39:40.801Z,3.62
2018-11-03T06:40:40.809Z,3.66
2018-11-03T06:41:40.807Z,3.72
2018-11-03T06:42:40.828Z,3.75
2018-11-03T06:43:40.824Z,3.76
2018-11-03T06:44:40.830Z,3.84
2018-11-03T06:45:40.839Z,3.86
2018-11-03T06:46:40.871Z,3.93
2018-11-03T06:47:40.858Z,3.94
2018-11-03T06:48:40.873Z,3.96
2018-11-03T06:49:40.877Z,4.00
2018-11-03T06:50:40.882Z,3.96
2018-11-03T06:52:40.904Z,3.91
2018-11-03T06:53:40.911Z,3.93
2018-11-03T06:54:40.919Z,4.05
2018-11-03T06:55:40.925Z,4.02
2018-11-03T06:56:40.942Z,4.06
2018-11-03T06:57:40.949Z,4.05
2018-11-03T06:58:40.951Z,4.12
2018-11-03T06:59:40.968Z,4.18
2018-11-03T07:00:40.972Z,4.16
2018-11-03T07:03:41.787Z,4.26
2018-11-03T07:04:41.008Z,4.29
2018-11-03T07:05:41.014Z,4.27
2018-11-03T07:06:41.022Z,4.41
2018-11-03T07:07:41.033Z,4.48
2018-11-03T07:08:41.038Z,4.41
2018-11-03T07:09:41.048Z,4.34
2018-11-03T07:10:41.181Z,4.40
2018-11-03T07:11:41.246Z,4.37
2018-11-03T07:12:41.274Z,4.44
2018-11-03T07:13:41.094Z,4.42
2018-11-03T07:14:41.090Z,4.40
2018-11-03T07:15:41.141Z,4.44
2018-11-03T07:16:41.111Z,4.45
2018-11-03T07:17:41.122Z,4.58
2018-11-03T07:18:41.125Z,4.55
2018-11-03T07:19:41.140Z,4.55
2018-11-03T07:21:41.249Z,4.65
2018-11-03T07:22:41.164Z,4.67
2018-11-03T07:23:41.196Z,4.78
2018-11-03T07:24:41.193Z,4.72
2018-11-03T07:25:41.187Z,4.78
2018-11-03T07:26:41.201Z,4.78
2018-11-03T07:27:41.205Z,4.82
2018-11-03T07:28:41.216Z,4.91
2018-11-03T07:29:41.294Z,4.91
2018-11-03T07:31:41.257Z,4.96
2018-11-03T07:32:41.462Z,4.89
2018-11-03T07:33:41.259Z,5.02
2018-11-03T07:34:41.327Z,4.96
2018-11-03T07:35:41.279Z,5.00
2018-11-03T07:36:41.287Z,5.03
2018-11-03T07:37:41.299Z,5.07
2018-11-03T07:38:41.446Z,5.09
2018-11-03T07:39:41.320Z,5.18
2018-11-03T07:40:41.349Z,5.15
2018-11-03T07:41:41.393Z,5.17
2018-11-03T07:42:41.433Z,5.21
2018-11-03T07:43:41.491Z,5.17
2018-11-03T07:44:41.373Z,5.24
2018-11-03T07:46:41.430Z,5.20
2018-11-03T07:47:41.699Z,5.30
2018-11-03T07:48:41.425Z,5.28
2018-11-03T07:49:41.475Z,5.27
2018-11-03T07:50:41.417Z,5.28
2018-11-03T07:51:41.424Z,5.30
2018-11-03T07:52:41.453Z,5.25
2018-11-03T07:53:41.777Z,5.28
2018-11-03T07:54:41.488Z,5.30
2018-11-03T07:55:41.462Z,5.36
2018-11-03T07:56:41.467Z,5.36
2018-11-03T07:57:42.424Z,5.42
2018-11-03T07:58:41.486Z,5.42
2018-11-03T07:59:41.501Z,5.49
2018-11-03T08:00:41.655Z,5.51
2018-11-03T08:01:41.516Z,5.45
2018-11-03T08:02:41.523Z,5.36
2018-11-03T08:03:41.535Z,5.38
2018-11-03T08:04:41.575Z,5.39
2018-11-03T08:05:41.709Z,5.48
2018-11-03T08:06:41.562Z,5.48
2018-11-03T08:07:41.573Z,5.56
2018-11-03T08:08:41.583Z,5.49
2018-11-03T08:09:41.592Z,5.51
2018-11-03T08:11:41.799Z,5.60
2018-11-03T08:12:41.618Z,5.63
2018-11-03T08:13:42.403Z,5.63
2018-11-03T08:14:41.789Z,5.57
2018-11-03T08:15:41.674Z,5.54
2018-11-03T08:16:41.724Z,5.63
2018-11-03T08:17:41.665Z,5.61
2018-11-03T08:18:41.673Z,5.63
2018-11-03T08:19:41.685Z,5.60
2018-11-03T08:20:41.729Z,5.63
2018-11-03T08:21:41.756Z,5.63
2018-11-03T08:22:41.714Z,5.57
2018-11-03T08:23:41.786Z,5.67
2018-11-03T08:24:41.733Z,5.60
2018-11-03T08:25:41.746Z,5.64
2018-11-03T08:26:41.754Z,5.64
2018-11-03T08:27:41.780Z,5.74
2018-11-03T08:28:41.783Z,5.71
2018-11-03T08:29:41.778Z,5.68
2018-11-03T08:30:41.837Z,5.67
2018-11-03T08:31:41.974Z,5.65
2018-11-03T08:33:41.922Z,5.67
2018-11-03T08:34:41.827Z,5.68
2018-11-03T08:35:41.835Z,5.76
2018-11-03T08:36:41.863Z,5.78
2018-11-03T08:37:41.853Z,5.74
2018-11-03T08:38:41.879Z,5.76
2018-11-03T08:39:41.917Z,5.72
2018-11-03T08:40:41.882Z,5.74
2018-11-03T08:41:41.890Z,5.68
2018-11-03T08:42:41.898Z,5.68
2018-11-03T08:43:41.908Z,5.67
2018-11-03T08:44:41.919Z,5.71
2018-11-03T08:45:41.933Z,5.71
2018-11-03T08:46:41.941Z,5.75
2018-11-03T08:47:41.949Z,5.83
2018-11-03T08:48:42.030Z,5.78
2018-11-03T08:49:41.967Z,5.76
2018-11-03T08:50:42.035Z,5.65
2018-11-03T08:51:41.988Z,5.71
2018-11-03T08:52:41.994Z,5.65
2018-11-03T08:53:42.004Z,5.67
2018-11-03T08:54:42.014Z,5.67
2018-11-03T08:55:42.024Z,5.72
2018-11-03T08:56:42.045Z,5.78
2018-11-03T08:57:42.043Z,5.72
2018-11-03T08:58:42.052Z,5.75
2018-11-03T08:59:42.353Z,5.75
2018-11-03T09:00:42.205Z,5.82
2018-11-03T09:01:42.373Z,5.81
2018-11-03T09:02:42.676Z,5.86
2018-11-03T09:03:42.134Z,5.93
2018-11-03T09:04:42.124Z,6.00
2018-11-03T09:05:42.151Z,6.12
2018-11-03T09:06:42.131Z,6.12
2018-11-03T09:07:42.145Z,6.12
2018-11-03T09:08:42.152Z,6.30
2018-11-03T09:09:42.157Z,6.28
2018-11-03T09:10:42.168Z,6.30
2018-11-03T09:11:42.180Z,6.40
2018-11-03T09:12:42.188Z,6.44
2018-11-03T09:13:42.197Z,6.43
2018-11-03T09:14:42.252Z,6.46
2018-11-03T09:15:42.216Z,6.38
2018-11-03T09:16:42.229Z,6.55
2018-11-03T09:17:42.237Z,6.49
2018-11-03T09:18:42.245Z,6.52
2018-11-03T09:19:42.270Z,6.62
2018-11-03T09:20:42.287Z,6.66
2018-11-03T09:21:42.355Z,6.69
2018-11-03T09:22:42.350Z,6.81
2018-11-03T09:23:42.295Z,6.85
2018-11-03T09:24:42.306Z,6.80
2018-11-03T09:25:42.315Z,6.74
2018-11-03T09:26:42.328Z,6.74
2018-11-03T09:27:42.345Z,6.79
2018-11-03T09:28:42.361Z,6.87
2018-11-03T09:29:42.406Z,6.87
2018-11-03T09:30:42.428Z,6.91
2018-11-03T09:31:42.561Z,6.91
2018-11-03T09:32:42.418Z,6.95
2018-11-03T09:33:43.005Z,6.92
2018-11-03T09:34:43.054Z,6.98
2018-11-03T09:35:42.419Z,6.92
2018-11-03T09:36:42.471Z,7.05
2018-11-03T09:37:42.436Z,7.05
2018-11-03T09:38:42.536Z,7.13
2018-11-03T09:39:42.527Z,7.12
2018-11-03T09:40:42.468Z,7.12
2018-11-03T09:41:42.475Z,7.13
2018-11-03T09:42:42.486Z,7.12
2018-11-03T09:43:42.494Z,7.12
2018-11-03T09:44:42.553Z,7.09
2018-11-03T09:45:42.938Z,7.12
2018-11-03T09:46:42.527Z,7.06
2018-11-03T09:47:42.536Z,7.25
2018-11-03T09:48:42.550Z,7.20
2018-11-03T09:49:42.573Z,7.25
2018-11-03T09:50:42.616Z,7.24
2018-11-03T09:51:42.577Z,7.25
2018-11-03T09:52:42.586Z,7.21
2018-11-03T09:53:42.604Z,7.28
2018-11-03T09:54:42.606Z,7.24
2018-11-03T09:55:42.617Z,7.32
2018-11-03T09:56:42.678Z,7.23
2018-11-03T09:57:42.640Z,7.31
2018-11-03T09:58:42.647Z,7.31
2018-11-03T09:59:42.661Z,7.34
2018-11-03T10:00:42.700Z,7.31
2018-11-03T10:01:42.677Z,7.30
2018-11-03T10:02:42.738Z,7.39
2018-11-03T10:03:42.700Z,7.32
2018-11-03T10:04:42.761Z,7.42
2018-11-03T10:05:42.752Z,7.42
2018-11-03T10:06:42.806Z,7.45
2018-11-03T10:07:42.737Z,7.53
2018-11-03T10:08:42.748Z,7.48
2018-11-03T10:09:42.796Z,7.48
2018-11-03T10:10:42.763Z,7.55
2018-11-03T10:11:42.775Z,7.52
2018-11-03T10:12:42.784Z,7.50
2018-11-03T10:13:42.798Z,7.55
2018-11-03T10:14:42.819Z,7.60
2018-11-03T10:15:42.846Z,7.45
2018-11-03T10:16:42.825Z,7.43
2018-11-03T10:17:43.485Z,7.40
2018-11-03T10:18:42.917Z,7.34
2018-11-03T10:19:42.869Z,7.42
2018-11-03T10:20:42.888Z,7.37
2018-11-03T10:21:42.876Z,7.45
2018-11-03T10:22:42.936Z,7.45
2018-11-03T10:23:42.894Z,7.63
2018-11-03T10:24:42.911Z,7.55
2018-11-03T10:25:42.917Z,7.60
2018-11-03T10:26:42.926Z,7.71
2018-11-03T10:27:42.936Z,7.69
2018-11-03T10:28:42.948Z,7.74
2018-11-03T10:29:43.688Z,7.75
2018-11-03T10:30:42.969Z,7.83
2018-11-03T10:31:43.043Z,7.83
2018-11-03T10:32:43.051Z,7.90
2018-11-03T10:33:43.006Z,7.95
2018-11-03T10:34:43.078Z,7.97
2018-11-03T10:35:43.185Z,7.95
2018-11-03T10:36:43.055Z,7.95
2018-11-03T10:37:43.043Z,8.02
2018-11-03T10:38:43.053Z,8.00
2018-11-03T10:39:43.094Z,8.01
2018-11-03T10:40:43.074Z,8.05
2018-11-03T10:41:43.081Z,8.07
2018-11-03T10:42:43.093Z,8.16
2018-11-03T10:43:43.104Z,8.12
2018-11-03T10:44:43.117Z,8.07
2018-11-03T10:45:43.124Z,8.15
2018-11-03T10:46:43.138Z,8.12
2018-11-03T10:47:43.155Z,8.18
2018-11-03T10:48:43.155Z,8.20
2018-11-03T10:49:43.166Z,8.25
2018-11-03T10:50:43.175Z,8.16
2018-11-03T10:51:43.193Z,8.29
2018-11-03T10:52:43.198Z,8.25
2018-11-03T10:53:43.308Z,8.28
2018-11-03T10:54:43.224Z,8.33
2018-11-03T10:55:43.230Z,8.40
2018-11-03T10:56:44.181Z,8.33
2018-11-03T10:57:43.251Z,8.33
2018-11-03T10:58:43.272Z,8.28
2018-11-03T10:59:43.321Z,8.36
2018-11-03T11:00:43.351Z,8.38
2018-11-03T11:01:43.412Z,8.30
2018-11-03T11:02:43.335Z,8.38
2018-11-03T11:03:43.528Z,8.40
2018-11-03T11:04:43.340Z,8.55
2018-11-03T11:05:43.335Z,8.55
2018-11-03T11:06:43.362Z,8.73
2018-11-03T11:07:43.354Z,8.76
2018-11-03T11:08:43.543Z,8.65
2018-11-03T11:09:43.381Z,8.73
2018-11-03T11:10:43.390Z,8.73
2018-11-03T11:11:43.398Z,8.68
2018-11-03T11:12:43.461Z,8.76
2018-11-03T11:13:43.418Z,8.66
2018-11-03T11:14:43.432Z,8.73
2018-11-03T11:15:43.504Z,8.71
2018-11-03T11:16:43.495Z,8.68
2018-11-03T11:17:43.461Z,8.73
2018-11-03T11:18:43.472Z,8.63
2018-11-03T11:19:43.486Z,8.74
2018-11-03T11:20:43.573Z,8.76
2018-11-03T11:21:43.505Z,8.80
2018-11-03T11:22:43.517Z,8.83
2018-11-03T11:23:43.619Z,8.79
2018-11-03T11:24:43.721Z,8.80
2018-11-03T11:25:43.545Z,8.79
2018-11-03T11:26:43.557Z,8.73
2018-11-03T11:27:43.577Z,8.70
2018-11-03T11:28:43.578Z,8.70
2018-11-03T11:29:43.647Z,8.62
2018-11-03T11:30:43.842Z,8.68
2018-11-03T11:31:43.826Z,8.62
2018-11-03T11:32:43.685Z,8.70
2018-11-03T11:34:43.743Z,8.74
2018-11-03T11:35:44.361Z,8.77
2018-11-03T11:36:43.899Z,8.83
2018-11-03T11:37:43.767Z,8.79
2018-11-03T11:38:43.838Z,8.86
2018-11-03T11:39:43.702Z,8.92
2018-11-03T11:40:43.811Z,8.95
2018-11-03T11:41:43.733Z,8.94
2018-11-03T11:42:43.730Z,8.96
2018-11-03T11:43:43.939Z,9.02
2018-11-03T11:44:43.933Z,8.89
2018-11-03T11:45:44.055Z,8.98
2018-11-03T11:46:43.940Z,9.05
2018-11-03T11:47:43.783Z,9.01
2018-11-03T11:48:43.909Z,9.13
2018-11-03T11:49:44.016Z,9.08
2018-11-03T11:50:43.815Z,9.10
2018-11-03T11:51:43.827Z,9.18
2018-11-03T11:52:43.837Z,9.24
2018-11-03T11:53:43.850Z,9.26
2018-11-03T11:54:43.908Z,9.32
2018-11-03T11:55:43.869Z,9.35
2018-11-03T11:56:43.933Z,9.39
2018-11-03T11:57:43.902Z,9.36
2018-11-03T11:58:43.934Z,9.40
2018-11-03T11:59:43.944Z,9.40
2018-11-03T12:00:43.950Z,9.36
2018-11-03T12:01:43.929Z,9.38
2018-11-03T12:02:43.943Z,9.48
2018-11-03T12:03:44.208Z,9.43
2018-11-03T12:04:44.063Z,9.48
2018-11-03T12:05:44.066Z,9.33
2018-11-03T12:06:44.004Z,9.50
2018-11-03T12:07:44.085Z,9.57
2018-11-03T12:08:44.029Z,9.61
2018-11-03T12:09:44.330Z,9.65
2018-11-03T12:10:44.031Z,9.58
2018-11-03T12:11:44.039Z,9.54
2018-11-03T12:12:44.063Z,9.51
2018-11-03T12:13:44.060Z,9.51
2018-11-03T12:14:44.071Z,9.51
2018-11-03T12:15:44.124Z,9.47
2018-11-03T12:16:44.093Z,9.50
2018-11-03T12:17:44.104Z,9.50
2018-11-03T12:18:44.116Z,9.54
2018-11-03T12:19:44.125Z,9.48
2018-11-03T12:20:44.358Z,9.51
2018-11-03T12:21:44.155Z,9.65
2018-11-03T12:22:44.158Z,9.53
2018-11-03T12:23:44.170Z,9.56
2018-11-03T12:24:44.182Z,9.58
2018-11-03T12:25:44.276Z,9.57
2018-11-03T12:26:44.790Z,9.51
2018-11-03T12:27:44.213Z,9.56
2018-11-03T12:28:44.241Z,9.65
2018-11-03T12:29:44.236Z,9.61
2018-11-03T12:30:44.248Z,9.64
2018-11-03T12:31:44.259Z,9.57
2018-11-03T12:32:44.269Z,9.65
2018-11-03T12:33:44.281Z,9.69
2018-11-03T12:34:44.291Z,9.72
2018-11-03T12:35:44.303Z,9.74
2018-11-03T12:36:44.325Z,9.71
2018-11-03T12:37:44.546Z,9.69
2018-11-03T12:38:44.476Z,9.75
2018-11-03T12:39:44.574Z,9.74
2018-11-03T12:40:44.488Z,9.75
2018-11-03T12:41:44.369Z,9.79
2018-11-03T12:42:44.383Z,9.83
2018-11-03T12:43:44.389Z,9.74
2018-11-03T12:44:44.402Z,9.74
2018-11-03T12:45:44.415Z,9.75
2018-11-03T12:46:44.436Z,9.72
2018-11-03T12:47:44.435Z,9.75
2018-11-03T12:48:44.447Z,9.76
2018-11-03T12:49:44.460Z,9.75
2018-11-03T12:50:44.501Z,9.74
2018-11-03T12:51:44.480Z,9.71
2018-11-03T12:52:44.489Z,9.78
2018-11-03T12:53:44.507Z,9.72
2018-11-03T12:54:44.513Z,9.75
2018-11-03T12:55:44.522Z,9.71
2018-11-03T12:56:44.593Z,9.81
2018-11-03T12:57:44.545Z,9.87
2018-11-03T12:58:44.835Z,9.91
2018-11-03T12:59:44.601Z,9.91
2018-11-03T13:00:44.578Z,9.93
2018-11-03T13:01:44.593Z,9.87
2018-11-03T13:02:44.605Z,9.94
2018-11-03T13:03:44.612Z,9.91
2018-11-03T13:04:44.623Z,9.94
2018-11-03T13:05:44.636Z,9.94
2018-11-03T13:06:44.646Z,9.93
2018-11-03T13:07:44.711Z,10.01
2018-11-03T13:08:44.922Z,9.91
2018-11-03T13:10:45.096Z,10.11
2018-11-03T13:11:44.716Z,10.02
2018-11-03T13:12:44.712Z,10.07
2018-11-03T13:13:44.727Z,10.18
2018-11-03T13:14:44.736Z,10.17
2018-11-03T13:15:44.759Z,10.12
2018-11-03T13:16:44.756Z,10.12
2018-11-03T13:17:44.770Z,10.15
2018-11-03T13:18:44.778Z,10.25
2018-11-03T13:19:44.788Z,10.20
2018-11-03T13:20:44.803Z,10.26
2018-11-03T13:21:44.834Z,10.18
2018-11-03T13:22:44.936Z,10.09
2018-11-03T13:23:44.847Z,10.11
2018-11-03T13:24:44.855Z,10.09
2018-11-03T13:25:44.857Z,10.15
2018-11-03T13:26:44.869Z,10.18
2018-11-03T13:27:44.879Z,10.14
2018-11-03T13:28:44.892Z,10.14
2018-11-03T13:29:44.913Z,10.27
2018-11-03T13:30:44.914Z,10.14
2018-11-03T13:31:44.925Z,10.14
2018-11-03T13:32:44.939Z,10.17
2018-11-03T13:33:44.949Z,10.05
2018-11-03T13:34:45.022Z,10.15
2018-11-03T13:35:44.972Z,10.18
2018-11-03T13:36:44.982Z,10.15
2018-11-03T13:37:44.994Z,10.22
2018-11-03T13:38:45.017Z,10.15
2018-11-03T13:39:45.392Z,10.07
2018-11-03T13:40:45.270Z,10.04
2018-11-03T13:41:45.368Z,10.09
2018-11-03T13:42:45.097Z,10.11
2018-11-03T13:43:45.061Z,10.18
2018-11-03T13:44:45.076Z,10.17
2018-11-03T13:45:45.086Z,10.11
2018-11-03T13:46:45.095Z,10.09
2018-11-03T13:47:45.137Z,10.18
2018-11-03T13:48:45.124Z,10.17